Time;durP1;ratioP1;P1;durP2;ratioP2;P2;SDS_P1;SDS_P2;PMS_P1;PMS_P2;Temp;Humidity;BMP_temperature;BMP_pressure;BME280_temperature;BME280_humidity;BME280_pressure;Samples;Min_cycle;Max_cycle;Signal;HPM_P1;HPM_P2
2022/07/17 00:01:26;;;;;;;1.45;0.65;;;;;;;;;;4733711;30;20059;-61
2022/07/17 00:03:54;;;;;;;2.72;1.25;;;;;;;;;;4733565;30;20510;-61
2022/07/17 00:06:24;;;;;;;0.70;0.50;;;;;;;;;;4733521;30;20043;-61
2022/07/17 00:08:51;;;;;;;2.47;0.70;;;;;;;;;;4733775;30;20045;-61
2022/07/17 00:11:19;;;;;;;3.92;0.80;;;;;;;;;;4733624;30;20045;-61
2022/07/17 00:13:46;;;;;;;2.20;0.90;;;;;;;;;;4733596;30;20045;-60
2022/07/17 00:16:13;;;;;;;1.13;0.75;;;;;;;;;;4733669;30;20048;-61
2022/07/17 00:18:41;;;;;;;1.95;0.60;;;;;;;;;;4733489;30;20143;-60
2022/07/17 00:21:08;;;;;;;2.83;0.63;;;;;;;;;;4717815;30;20059;-61
2022/07/17 00:23:39;;;;;;;0.60;0.57;;;;;;;;;;4733459;30;20048;-61
2022/07/17 00:26:06;;;;;;;1.70;0.60;;;;;;;;;;4717674;30;20589;-61
2022/07/17 00:28:33;;;;;;;5.63;1.10;;;;;;;;;;4733284;30;20041;-61
2022/07/17 00:31:01;;;;;;;2.20;0.70;;;;;;;;;;4733161;30;20114;-60
2022/07/17 00:33:28;;;;;;;3.10;0.95;;;;;;;;;;4733520;30;20051;-61
2022/07/17 00:35:55;;;;;;;0.85;0.60;;;;;;;;;;4733330;30;20098;-61
2022/07/17 00:38:23;;;;;;;0.70;0.60;;;;;;;;;;4733424;30;20057;-61
2022/07/17 00:40:54;;;;;;;2.90;0.50;;;;;;;;;;4717594;30;20056;-60
2022/07/17 00:43:22;;;;;;;1.08;0.73;;;;;;;;;;4733410;30;20525;-61
2022/07/17 00:45:57;;;;;;;2.15;0.60;;;;;;;;;;4733555;30;20040;-61
2022/07/17 00:48:25;;;;;;;0.98;0.85;;;;;;;;;;4733223;30;20100;-60
2022/07/17 00:50:53;;;;;;;0.57;0.50;;;;;;;;;;4733480;30;20084;-61
2022/07/17 00:53:22;;;;;;;2.63;1.05;;;;;;;;;;4733245;30;20056;-61
2022/07/17 00:55:49;;;;;;;1.50;0.73;;;;;;;;;;4733142;30;20102;-61
2022/07/17 00:58:23;;;;;;;1.33;0.90;;;;;;;;;;4733186;30;20119;-60
2022/07/17 01:00:54;;;;;;;1.30;0.70;;;;;;;;;;4733376;30;20068;-60
2022/07/17 01:03:24;;;;;;;1.58;0.90;;;;;;;;;;4733265;30;20053;-61
2022/07/17 01:05:52;;;;;;;3.03;1.17;;;;;;;;;;4735648;30;20057;-61
2022/07/17 01:08:19;;;;;;;2.28;0.50;;;;;;;;;;4736295;30;20048;-61
2022/07/17 01:10:47;;;;;;;1.30;0.68;;;;;;;;;;4736438;30;20056;-61
2022/07/17 01:13:14;;;;;;;2.45;0.90;;;;;;;;;;4736377;30;20044;-61
2022/07/17 01:15:42;;;;;;;0.95;0.68;;;;;;;;;;4736350;30;20045;-61
2022/07/17 01:18:13;;;;;;;0.40;0.40;;;;;;;;;;4736038;30;20048;-61
2022/07/17 01:20:43;;;;;;;3.15;0.65;;;;;;;;;;4736183;30;20056;-60
2022/07/17 01:23:11;;;;;;;0.45;0.40;;;;;;;;;;4735920;30;20049;-60
2022/07/17 01:25:38;;;;;;;1.50;0.50;;;;;;;;;;4735928;30;20114;-61
2022/07/17 01:28:07;;;;;;;2.75;0.88;;;;;;;;;;4736034;30;20122;-61
2022/07/17 01:30:35;;;;;;;0.65;0.55;;;;;;;;;;4735964;30;20053;-61
2022/07/17 01:33:03;;;;;;;0.95;0.60;;;;;;;;;;4736109;30;20056;-61
2022/07/17 01:35:30;;;;;;;1.05;0.55;;;;;;;;;;4735593;30;20106;-60
2022/07/17 01:37:57;;;;;;;1.23;0.73;;;;;;;;;;4735893;30;20047;-60
2022/07/17 01:40:25;;;;;;;4.18;0.85;;;;;;;;;;4735718;30;20045;-61
2022/07/17 01:42:52;;;;;;;2.45;0.73;;;;;;;;;;4735772;30;20045;-60
2022/07/17 01:45:19;;;;;;;2.85;0.90;;;;;;;;;;4735809;30;20045;-60
2022/07/17 01:47:47;;;;;;;1.85;0.90;;;;;;;;;;4735849;30;20053;-60
2022/07/17 01:50:15;;;;;;;1.42;0.85;;;;;;;;;;4735718;30;20057;-60
2022/07/17 01:52:44;;;;;;;1.35;0.77;;;;;;;;;;4735561;30;20502;-60
2022/07/17 01:55:13;;;;;;;1.50;0.50;;;;;;;;;;4735486;30;20084;-61
2022/07/17 01:57:41;;;;;;;0.93;0.60;;;;;;;;;;4735511;30;20413;-61
2022/07/17 02:00:14;;;;;;;1.63;0.80;;;;;;;;;;4735035;30;20053;-60
2022/07/17 02:02:41;;;;;;;1.90;0.80;;;;;;;;;;4735201;30;20045;-61
2022/07/17 02:05:08;;;;;;;2.50;0.57;;;;;;;;;;4735162;30;20307;-61
2022/07/17 02:07:39;;;;;;;0.95;0.60;;;;;;;;;;4735326;30;20047;-60
2022/07/17 02:10:09;;;;;;;4.13;0.93;;;;;;;;;;4735289;30;20079;-60
2022/07/17 02:12:37;;;;;;;0.60;0.57;;;;;;;;;;4735187;30;20135;-60
2022/07/17 02:15:05;;;;;;;1.02;0.70;;;;;;;;;;4734961;30;20067;-61
2022/07/17 02:17:37;;;;;;;2.38;1.13;;;;;;;;;;4734999;30;20426;-60
2022/07/17 02:20:06;;;;;;;0.90;0.57;;;;;;;;;;4734929;30;20533;-60
2022/07/17 02:22:35;;;;;;;1.48;0.82;;;;;;;;;;4734931;30;20391;-61
2022/07/17 02:25:05;;;;;;;1.05;0.80;;;;;;;;;;4735111;30;20056;-61
2022/07/17 02:27:33;;;;;;;2.40;0.80;;;;;;;;;;4734670;30;20114;-60
2022/07/17 02:30:05;;;;;;;1.08;0.70;;;;;;;;;;4734786;30;20123;-60
2022/07/17 02:32:33;;;;;;;1.63;0.75;;;;;;;;;;4734723;30;20055;-61
2022/07/17 02:35:00;;;;;;;1.00;0.70;;;;;;;;;;4734960;30;20084;-60
2022/07/17 02:37:27;;;;;;;1.67;0.50;;;;;;;;;;4734888;30;20076;-60
2022/07/17 02:39:54;;;;;;;2.05;0.50;;;;;;;;;;4734555;30;20052;-61
2022/07/17 02:42:23;;;;;;;1.00;0.70;;;;;;;;;;4734674;30;20056;-60
2022/07/17 02:44:52;;;;;;;1.73;0.70;;;;;;;;;;4734740;30;20462;-60
2022/07/17 02:47:24;;;;;;;1.75;0.65;;;;;;;;;;4734740;30;20099;-60
2022/07/17 02:49:53;;;;;;;4.13;0.90;;;;;;;;;;4734550;30;20051;-60
2022/07/17 02:52:20;;;;;;;0.93;0.70;;;;;;;;;;4734525;30;20538;-60
2022/07/17 02:54:48;;;;;;;1.63;0.90;;;;;;;;;;4734492;30;20056;-60
2022/07/17 02:57:16;;;;;;;1.17;0.85;;;;;;;;;;4734753;30;20049;-60
2022/07/17 02:59:43;;;;;;;1.15;0.85;;;;;;;;;;4734010;30;20060;-60
2022/07/17 03:02:11;;;;;;;1.70;0.95;;;;;;;;;;4734388;30;20048;-60
2022/07/17 03:04:40;;;;;;;1.23;0.80;;;;;;;;;;4734306;30;20056;-61
2022/07/17 03:07:07;;;;;;;1.65;0.70;;;;;;;;;;4734285;30;20525;-60
2022/07/17 03:09:34;;;;;;;1.00;0.65;;;;;;;;;;4734309;30;20143;-60
2022/07/17 03:12:02;;;;;;;1.05;0.70;;;;;;;;;;4734006;30;20501;-60
2022/07/17 03:14:29;;;;;;;0.85;0.60;;;;;;;;;;4734128;30;20470;-60
2022/07/17 03:16:56;;;;;;;0.70;0.70;;;;;;;;;;4718262;30;20056;-61
2022/07/17 03:19:24;;;;;;;0.88;0.70;;;;;;;;;;4734093;30;20062;-60
2022/07/17 03:21:51;;;;;;;0.88;0.63;;;;;;;;;;4733988;30;20053;-60
2022/07/17 03:24:18;;;;;;;34.97;15.40;;;;;;;;;;4734256;30;20049;-60
2022/07/17 03:26:45;;;;;;;4.05;1.52;;;;;;;;;;4721299;30;20110;-60
2022/07/17 03:29:16;;;;;;;1.15;0.80;;;;;;;;;;4716593;30;20044;-61
2022/07/17 03:31:45;;;;;;;1.17;0.80;;;;;;;;;;4733766;30;20506;-62
2022/07/17 03:34:13;;;;;;;0.63;0.52;;;;;;;;;;4734213;30;20052;-61
2022/07/17 03:36:41;;;;;;;2.92;0.80;;;;;;;;;;4751624;30;20323;-60
2022/07/17 03:39:08;;;;;;;0.70;0.50;;;;;;;;;;4751233;30;20144;-60
2022/07/17 03:41:38;;;;;;;0.85;0.50;;;;;;;;;;4735782;30;20476;-60
2022/07/17 03:44:06;;;;;;;1.65;0.80;;;;;;;;;;4751332;30;20425;-61
2022/07/17 03:46:34;;;;;;;2.90;0.90;;;;;;;;;;4751295;30;20056;-58
2022/07/17 03:49:02;;;;;;;1.30;0.93;;;;;;;;;;4751246;30;20044;-59
2022/07/17 03:51:29;;;;;;;1.95;0.70;;;;;;;;;;4751272;30;20063;-60
2022/07/17 03:53:57;;;;;;;0.85;0.60;;;;;;;;;;4751165;30;20049;-60
2022/07/17 03:56:24;;;;;;;1.38;0.88;;;;;;;;;;4751133;30;20056;-61
2022/07/17 03:58:52;;;;;;;1.50;0.70;;;;;;;;;;4751474;30;20083;-60
2022/07/17 04:01:20;;;;;;;2.22;1.00;;;;;;;;;;4751271;30;20098;-60
2022/07/17 04:03:47;;;;;;;2.97;0.90;;;;;;;;;;4751779;30;20409;-60
2022/07/17 04:06:14;;;;;;;2.95;0.95;;;;;;;;;;4751214;30;20052;-60
2022/07/17 04:08:42;;;;;;;10.35;7.00;;;;;;;;;;4751347;30;20558;-60
2022/07/17 04:11:09;;;;;;;11.65;6.07;;;;;;;;;;4751274;30;20502;-60
2022/07/17 04:13:37;;;;;;;1.33;0.85;;;;;;;;;;4751252;30;20048;-60
2022/07/17 04:16:04;;;;;;;1.90;0.82;;;;;;;;;;4750967;30;20060;-60
2022/07/17 04:18:34;;;;;;;1.05;0.70;;;;;;;;;;4751225;30;20552;-60
2022/07/17 04:21:04;;;;;;;1.50;0.73;;;;;;;;;;4751206;30;20048;-60
2022/07/17 04:23:35;;;;;;;1.30;0.60;;;;;;;;;;4751139;30;20422;-60
2022/07/17 04:26:06;;;;;;;1.55;0.60;;;;;;;;;;4751021;30;20056;-60
2022/07/17 04:28:39;;;;;;;1.30;0.88;;;;;;;;;;4750946;30;20056;-61
2022/07/17 04:31:07;;;;;;;2.53;0.73;;;;;;;;;;4737973;30;20049;-60
2022/07/17 04:33:35;;;;;;;1.55;0.80;;;;;;;;;;4733557;30;20498;-60
2022/07/17 04:36:02;;;;;;;1.38;0.80;;;;;;;;;;4733198;30;20045;-60
2022/07/17 04:38:29;;;;;;;1.98;0.80;;;;;;;;;;4733376;30;20049;-60
2022/07/17 04:40:57;;;;;;;1.08;0.65;;;;;;;;;;4736033;30;20131;-60
2022/07/17 04:43:24;;;;;;;4.03;1.25;;;;;;;;;;4736781;30;20446;-59
2022/07/17 04:45:52;;;;;;;18.73;8.73;;;;;;;;;;4737108;30;20072;-59
2022/07/17 04:48:19;;;;;;;1.85;0.93;;;;;;;;;;4720887;30;20520;-60
2022/07/17 04:50:49;;;;;;;1.45;0.80;;;;;;;;;;4736701;30;20052;-60
2022/07/17 04:53:16;;;;;;;2.70;0.80;;;;;;;;;;4736495;30;20041;-60
2022/07/17 04:55:50;;;;;;;1.13;0.70;;;;;;;;;;4736638;30;20502;-60
2022/07/17 04:58:18;;;;;;;2.47;0.65;;;;;;;;;;4736272;30;20458;-60
2022/07/17 05:00:46;;;;;;;1.75;0.55;;;;;;;;;;4736500;30;20048;-60
2022/07/17 05:03:13;;;;;;;0.80;0.70;;;;;;;;;;4736452;30;20053;-61
2022/07/17 05:05:41;;;;;;;1.65;0.63;;;;;;;;;;4736460;30;20044;-59
2022/07/17 05:08:08;;;;;;;2.03;0.70;;;;;;;;;;4736263;30;20055;-60
2022/07/17 05:10:35;;;;;;;1.40;0.60;;;;;;;;;;4736269;30;20059;-59
2022/07/17 05:13:02;;;;;;;0.90;0.80;;;;;;;;;;4720716;30;20453;-60
2022/07/17 05:15:30;;;;;;;0.82;0.70;;;;;;;;;;4736208;30;20460;-60
2022/07/17 05:18:06;;;;;;;1.42;0.60;;;;;;;;;;4735845;30;20107;-60
2022/07/17 05:20:33;;;;;;;0.82;0.50;;;;;;;;;;4735994;30;20055;-60
2022/07/17 05:23:00;;;;;;;4.47;2.35;;;;;;;;;;4736168;30;20044;-58
2022/07/17 05:25:27;;;;;;;2.92;1.05;;;;;;;;;;4736185;30;20049;-59
2022/07/17 05:27:55;;;;;;;1.25;0.68;;;;;;;;;;4736176;30;20053;-61
2022/07/17 05:30:24;;;;;;;1.02;0.70;;;;;;;;;;4731333;30;20040;-59
2022/07/17 05:32:51;;;;;;;2.25;0.65;;;;;;;;;;4736317;30;20079;-59
2022/07/17 05:35:19;;;;;;;1.80;0.80;;;;;;;;;;4735904;30;20445;-59
2022/07/17 05:37:46;;;;;;;0.93;0.60;;;;;;;;;;4735828;30;20484;-61
2022/07/17 05:40:13;;;;;;;118.35;82.47;;;;;;;;;;4735850;30;20755;-60
2022/07/17 05:42:40;;;;;;;6.28;4.25;;;;;;;;;;4735578;30;20119;-61
2022/07/17 05:45:08;;;;;;;2.63;1.10;;;;;;;;;;4735817;30;20048;-60
2022/07/17 05:47:35;;;;;;;3.42;0.80;;;;;;;;;;4730003;30;20049;-61
2022/07/17 05:50:03;;;;;;;1.20;0.70;;;;;;;;;;4717958;30;20045;-61
2022/07/17 05:52:30;;;;;;;4.45;0.70;;;;;;;;;;4718035;30;20052;-60
2022/07/17 05:54:57;;;;;;;0.93;0.63;;;;;;;;;;4718081;30;20053;-60
2022/07/17 05:57:25;;;;;;;0.60;0.60;;;;;;;;;;4718119;30;20045;-60
2022/07/17 05:59:52;;;;;;;0.55;0.52;;;;;;;;;;4718123;30;20089;-60
2022/07/17 06:02:19;;;;;;;2.47;0.70;;;;;;;;;;4718111;30;20134;-61
2022/07/17 06:04:46;;;;;;;1.10;0.60;;;;;;;;;;4718014;30;20060;-60
2022/07/17 06:07:14;;;;;;;165.73;85.78;;;;;;;;;;4702639;30;20384;-61
2022/07/17 06:09:41;;;;;;;6.38;3.75;;;;;;;;;;4717902;30;20100;-61
2022/07/17 06:12:08;;;;;;;1.08;0.60;;;;;;;;;;4717662;30;20057;-60
2022/07/17 06:14:35;;;;;;;2.65;0.65;;;;;;;;;;4717779;30;20085;-60
2022/07/17 06:17:03;;;;;;;0.40;0.40;;;;;;;;;;4717853;30;20060;-60
2022/07/17 06:19:30;;;;;;;1.17;0.75;;;;;;;;;;4717904;30;20388;-61
2022/07/17 06:22:00;;;;;;;1.63;0.93;;;;;;;;;;4717809;30;20400;-60
2022/07/17 06:24:27;;;;;;;1.13;0.60;;;;;;;;;;4717594;30;20099;-60
2022/07/17 06:26:54;;;;;;;3.95;1.65;;;;;;;;;;4717532;30;20144;-60
2022/07/17 06:29:21;;;;;;;2.50;0.77;;;;;;;;;;4717495;30;20111;-60
2022/07/17 06:31:48;;;;;;;0.85;0.60;;;;;;;;;;4735137;30;20076;-60
2022/07/17 06:34:16;;;;;;;1.02;0.50;;;;;;;;;;4735040;30;20549;-60
2022/07/17 06:36:43;;;;;;;1.77;0.77;;;;;;;;;;4734668;30;20084;-61
2022/07/17 06:39:10;;;;;;;3.03;0.40;;;;;;;;;;4734774;30;20045;-60
2022/07/17 06:41:37;;;;;;;1.08;0.40;;;;;;;;;;4734784;30;20102;-60
2022/07/17 06:44:05;;;;;;;0.93;0.55;;;;;;;;;;4734464;30;20056;-61
2022/07/17 06:46:32;;;;;;;0.75;0.50;;;;;;;;;;4734726;30;20504;-60
2022/07/17 06:48:59;;;;;;;0.40;0.40;;;;;;;;;;4734730;30;20052;-60
2022/07/17 06:51:27;;;;;;;52.00;32.45;;;;;;;;;;4734753;30;20044;-59
2022/07/17 06:53:54;;;;;;;5.43;1.10;;;;;;;;;;4734664;30;20072;-59
2022/07/17 06:56:22;;;;;;;2.50;0.30;;;;;;;;;;4718690;30;20518;-59
2022/07/17 06:58:49;;;;;;;0.38;0.30;;;;;;;;;;4734823;30;20055;-59
2022/07/17 07:01:16;;;;;;;2.65;0.40;;;;;;;;;;4734563;30;20525;-59
2022/07/17 07:03:43;;;;;;;0.30;0.30;;;;;;;;;;4718237;30;20044;-59
2022/07/17 07:06:11;;;;;;;0.60;0.30;;;;;;;;;;4734321;30;20056;-60
2022/07/17 07:08:38;;;;;;;2.20;0.52;;;;;;;;;;4734369;30;20098;-58
2022/07/17 07:11:06;;;;;;;0.60;0.30;;;;;;;;;;4734193;30;20405;-59
2022/07/17 07:13:33;;;;;;;0.98;0.60;;;;;;;;;;4734190;30;20102;-59
2022/07/17 07:16:01;;;;;;;16.08;7.65;;;;;;;;;;4734169;30;20456;-59
2022/07/17 07:18:28;;;;;;;2.53;1.05;;;;;;;;;;4734180;30;20055;-59
2022/07/17 07:20:55;;;;;;;0.45;0.35;;;;;;;;;;4733979;30;20596;-59
2022/07/17 07:23:22;;;;;;;0.65;0.40;;;;;;;;;;4734241;30;20103;-59
2022/07/17 07:25:50;;;;;;;1.02;0.50;;;;;;;;;;4734096;30;20508;-59
2022/07/17 07:28:18;;;;;;;0.50;0.30;;;;;;;;;;4733679;30;20173;-60
2022/07/17 07:30:45;;;;;;;0.80;0.40;;;;;;;;;;4734198;30;20048;-60
2022/07/17 07:33:12;;;;;;;0.55;0.50;;;;;;;;;;4734104;30;20045;-59
2022/07/17 07:35:40;;;;;;;0.40;0.40;;;;;;;;;;4733912;30;20054;-61
2022/07/17 07:38:08;;;;;;;2.05;0.50;;;;;;;;;;4733650;30;20406;-59
2022/07/17 07:40:36;;;;;;;0.73;0.30;;;;;;;;;;4733759;30;20049;-59
2022/07/17 07:43:04;;;;;;;1.30;0.60;;;;;;;;;;4733823;30;20051;-60
2022/07/17 07:45:31;;;;;;;1.05;0.50;;;;;;;;;;4733993;30;20052;-60
2022/07/17 07:47:59;;;;;;;0.80;0.30;;;;;;;;;;4733831;30;20114;-59
2022/07/17 07:50:28;;;;;;;2.10;0.32;;;;;;;;;;4733623;30;20053;-60
2022/07/17 07:52:56;;;;;;;91.70;39.63;;;;;;;;;;4733658;30;20044;-58
2022/07/17 07:55:25;;;;;;;6.78;1.70;;;;;;;;;;4733866;30;20048;-60
2022/07/17 07:58:08;;;;;;;0.50;0.40;;;;;;;;;;4733892;30;20572;-59
2022/07/17 08:00:36;;;;;;;0.60;0.30;;;;;;;;;;4733858;30;20076;-60
2022/07/17 08:03:03;;;;;;;0.55;0.28;;;;;;;;;;4733364;30;20521;-59
2022/07/17 08:05:31;;;;;;;0.30;0.22;;;;;;;;;;4733727;30;20049;-59
2022/07/17 08:07:58;;;;;;;0.20;0.20;;;;;;;;;;4733684;30;20056;-61
2022/07/17 08:10:26;;;;;;;0.32;0.20;;;;;;;;;;4726326;30;20395;-61
2022/07/17 08:12:54;;;;;;;0.30;0.20;;;;;;;;;;4733456;30;20103;-60
2022/07/17 08:15:22;;;;;;;1.67;0.40;;;;;;;;;;4736991;30;20052;-60
2022/07/17 08:17:50;;;;;;;7.07;3.95;;;;;;;;;;4737402;30;20040;-61
2022/07/17 08:20:19;;;;;;;1.25;0.38;;;;;;;;;;4736890;30;20522;-60
2022/07/17 08:22:47;;;;;;;0.60;0.30;;;;;;;;;;4737138;30;20132;-60
2022/07/17 08:25:33;;;;;;;0.50;0.30;;;;;;;;;;4737128;30;20533;-60
2022/07/17 08:28:05;;;;;;;0.40;0.30;;;;;;;;;;4736667;30;20083;-59
2022/07/17 08:30:36;;;;;;;1.13;0.30;;;;;;;;;;4736759;30;20052;-59
2022/07/17 08:33:04;;;;;;;0.38;0.28;;;;;;;;;;4736978;30;20053;-60
2022/07/17 08:35:33;;;;;;;0.63;0.20;;;;;;;;;;4736786;30;20406;-60
2022/07/17 08:38:00;;;;;;;0.75;0.35;;;;;;;;;;4736908;30;20045;-59
2022/07/17 08:40:31;;;;;;;0.30;0.20;;;;;;;;;;4736565;30;20072;-60
2022/07/17 08:43:00;;;;;;;1.02;0.25;;;;;;;;;;4736903;30;20052;-59
2022/07/17 08:45:28;;;;;;;0.55;0.20;;;;;;;;;;4736591;30;20048;-60
2022/07/17 08:47:56;;;;;;;0.20;0.20;;;;;;;;;;4736865;30;20528;-60
2022/07/17 08:50:26;;;;;;;1.75;0.20;;;;;;;;;;4736894;30;20098;-60
2022/07/17 08:52:56;;;;;;;0.85;0.40;;;;;;;;;;4736328;30;20059;-60
2022/07/17 08:55:24;;;;;;;0.50;0.20;;;;;;;;;;4736621;30;20065;-61
2022/07/17 08:57:52;;;;;;;0.10;0.10;;;;;;;;;;4732559;30;20525;-60
2022/07/17 09:00:22;;;;;;;72.90;38.05;;;;;;;;;;4736647;30;20131;-58
2022/07/17 09:02:59;;;;;;;3.67;1.73;;;;;;;;;;4736368;30;20139;-60
2022/07/17 09:05:30;;;;;;;0.82;0.30;;;;;;;;;;4729156;30;20509;-60
2022/07/17 09:07:59;;;;;;;0.20;0.20;;;;;;;;;;4734325;30;20044;-57
2022/07/17 09:10:38;;;;;;;2.28;0.40;;;;;;;;;;4746287;30;20410;-58
2022/07/17 09:13:25;;;;;;;0.20;0.20;;;;;;;;;;4753623;30;20048;-58
2022/07/17 09:16:05;;;;;;;1.67;0.40;;;;;;;;;;4753642;30;20124;-60
2022/07/17 09:18:47;;;;;;;2.30;0.30;;;;;;;;;;4742514;30;20083;-59
2022/07/17 09:21:27;;;;;;;4.88;0.40;;;;;;;;;;4735215;30;20522;-58
2022/07/17 09:24:03;;;;;;;0.20;0.20;;;;;;;;;;4753389;30;20055;-59
2022/07/17 09:26:32;;;;;;;0.95;0.40;;;;;;;;;;4752803;30;20049;-60
2022/07/17 09:29:04;;;;;;;0.77;0.28;;;;;;;;;;4752421;30;20549;-60
2022/07/17 09:31:33;;;;;;;0.52;0.32;;;;;;;;;;4737786;30;20387;-58
2022/07/17 09:34:03;;;;;;;7.35;4.32;;;;;;;;;;4735767;30;20083;-58
2022/07/17 09:36:31;;;;;;;0.47;0.30;;;;;;;;;;4735526;30;20049;-59
2022/07/17 09:38:59;;;;;;;0.73;0.25;;;;;;;;;;4735745;30;20391;-59
2022/07/17 09:41:31;;;;;;;0.50;0.30;;;;;;;;;;4728817;30;20049;-59
2022/07/17 09:44:00;;;;;;;0.73;0.10;;;;;;;;;;4735798;30;20120;-61
2022/07/17 09:46:31;;;;;;;0.45;0.30;;;;;;;;;;4735382;30;20418;-60
2022/07/17 09:49:09;;;;;;;0.35;0.20;;;;;;;;;;4735510;30;20060;-60
2022/07/17 09:51:39;;;;;;;0.85;0.50;;;;;;;;;;4735496;30;20072;-61
2022/07/17 09:54:10;;;;;;;0.32;0.30;;;;;;;;;;4735608;30;20139;-61
2022/07/17 09:56:42;;;;;;;0.20;0.20;;;;;;;;;;4735415;30;20119;-61
2022/07/17 09:59:12;;;;;;;0.65;0.30;;;;;;;;;;4735421;30;20053;-60
2022/07/17 10:01:41;;;;;;;1.48;0.30;;;;;;;;;;4740493;30;20044;-61
2022/07/17 10:04:11;;;;;;;1.75;0.22;;;;;;;;;;4752991;30;20092;-60
2022/07/17 10:06:38;;;;;;;0.20;0.10;;;;;;;;;;4752933;30;20127;-58
2022/07/17 10:09:06;;;;;;;0.20;0.20;;;;;;;;;;4753081;30;20067;-59
2022/07/17 10:11:38;;;;;;;0.63;0.20;;;;;;;;;;4753082;30;20098;-59
2022/07/17 10:14:15;;;;;;;3.70;0.30;;;;;;;;;;4752651;30;20051;-58
2022/07/17 10:16:44;;;;;;;0.95;0.43;;;;;;;;;;4752344;30;20098;-62
2022/07/17 10:19:20;;;;;;;0.10;0.10;;;;;;;;;;4752533;30;20094;-61
2022/07/17 10:22:05;;;;;;;0.63;0.20;;;;;;;;;;4752945;30;20135;-62
2022/07/17 10:24:49;;;;;;;0.57;0.30;;;;;;;;;;4752440;30;20413;-62
2022/07/17 10:27:21;;;;;;;0.10;0.10;;;;;;;;;;4736942;30;20076;-61
2022/07/17 10:29:59;;;;;;;1.08;0.20;;;;;;;;;;4749121;30;20494;-58
2022/07/17 10:32:27;;;;;;;10.25;7.88;;;;;;;;;;4747426;30;20056;-60
2022/07/17 10:35:07;;;;;;;1.67;0.30;;;;;;;;;;4752645;30;20127;-61
2022/07/17 10:37:37;;;;;;;0.55;0.20;;;;;;;;;;4749653;30;20107;-60
2022/07/17 10:40:07;;;;;;;0.95;0.20;;;;;;;;;;4719184;30;20068;-61
2022/07/17 10:42:39;;;;;;;1.08;0.20;;;;;;;;;;4734530;30;20045;-60
2022/07/17 10:45:19;;;;;;;0.63;0.20;;;;;;;;;;4719248;30;20474;-60
2022/07/17 10:47:48;;;;;;;0.63;0.30;;;;;;;;;;4718606;30;20052;-60
2022/07/17 10:50:19;;;;;;;0.55;0.28;;;;;;;;;;4716817;30;20045;-62
2022/07/17 10:53:00;;;;;;;0.57;0.20;;;;;;;;;;4716983;30;20158;-61
2022/07/17 10:55:29;;;;;;;0.40;0.20;;;;;;;;;;4716937;30;20057;-61
2022/07/17 10:57:57;;;;;;;0.40;0.30;;;;;;;;;;4716624;30;20045;-61
2022/07/17 11:00:27;;;;;;;1.73;0.25;;;;;;;;;;4716968;30;20060;-61
2022/07/17 11:02:54;;;;;;;0.30;0.20;;;;;;;;;;4716988;30;20136;-61
2022/07/17 11:05:23;;;;;;;0.57;0.20;;;;;;;;;;4716427;30;20065;-59
2022/07/17 11:07:53;;;;;;;0.20;0.20;;;;;;;;;;4734083;30;20060;-60
2022/07/17 11:10:22;;;;;;;0.47;0.20;;;;;;;;;;4733809;30;20544;-60
2022/07/17 11:12:49;;;;;;;0.22;0.20;;;;;;;;;;4734327;30;20083;-61
2022/07/17 11:15:17;;;;;;;0.20;0.20;;;;;;;;;;4734279;30;20485;-61
2022/07/17 11:17:49;;;;;;;0.50;0.13;;;;;;;;;;4734335;30;20067;-62
2022/07/17 11:20:16;;;;;;;0.30;0.20;;;;;;;;;;4734139;30;20079;-62
2022/07/17 11:22:44;;;;;;;0.20;0.20;;;;;;;;;;4718702;30;20040;-62
2022/07/17 11:25:14;;;;;;;0.52;0.30;;;;;;;;;;4718334;30;20414;-62
2022/07/17 11:27:42;;;;;;;0.43;0.30;;;;;;;;;;4733989;30;20493;-62
2022/07/17 11:30:15;;;;;;;1.27;0.63;;;;;;;;;;4733704;30;20052;-62
2022/07/17 11:32:43;;;;;;;0.55;0.20;;;;;;;;;;4734050;30;20061;-61
2022/07/17 11:35:19;;;;;;;0.20;0.20;;;;;;;;;;4734132;30;20048;-61
2022/07/17 11:38:07;;;;;;;23.65;12.35;;;;;;;;;;4733961;30;20098;-57
2022/07/17 11:40:34;;;;;;;4.03;1.98;;;;;;;;;;4733511;30;20052;-60
2022/07/17 11:43:04;;;;;;;0.63;0.20;;;;;;;;;;4736052;30;20121;-60
2022/07/17 11:45:32;;;;;;;0.82;0.15;;;;;;;;;;4733485;30;20502;-61
2022/07/17 11:48:03;;;;;;;0.77;0.22;;;;;;;;;;4733266;30;20480;-62
2022/07/17 11:50:30;;;;;;;0.47;0.32;;;;;;;;;;4733584;30;20041;-61
2022/07/17 11:53:02;;;;;;;1.40;0.30;;;;;;;;;;4733868;30;20056;-62
2022/07/17 11:55:37;;;;;;;0.35;0.20;;;;;;;;;;4733814;30;20056;-62
2022/07/17 11:58:05;;;;;;;1.85;0.20;;;;;;;;;;4733705;30;20055;-62
2022/07/17 12:00:35;;;;;;;0.77;0.30;;;;;;;;;;4733746;30;20132;-62
2022/07/17 12:03:05;;;;;;;1.08;0.20;;;;;;;;;;4733776;30;20465;-61
2022/07/17 12:05:35;;;;;;;0.15;0.15;;;;;;;;;;4733660;30;20049;-61
2022/07/17 12:08:07;;;;;;;0.70;0.30;;;;;;;;;;4733626;30;20057;-61
2022/07/17 12:10:34;;;;;;;0.45;0.20;;;;;;;;;;4733629;30;20072;-62
2022/07/17 12:13:04;;;;;;;4.13;1.77;;;;;;;;;;4732609;30;20551;-60
2022/07/17 12:15:39;;;;;;;1.05;0.60;;;;;;;;;;4732851;30;20071;-61
2022/07/17 12:18:19;;;;;;;0.80;0.30;;;;;;;;;;4733395;30;20502;-61
2022/07/17 12:20:49;;;;;;;0.60;0.50;;;;;;;;;;4733652;30;20041;-61
2022/07/17 12:23:36;;;;;;;0.55;0.30;;;;;;;;;;4733564;30;20131;-61
2022/07/17 12:26:18;;;;;;;2.17;1.00;;;;;;;;;;4733450;30;20510;-61
2022/07/17 12:28:47;;;;;;;0.20;0.20;;;;;;;;;;4733339;30;20449;-62
2022/07/17 12:31:14;;;;;;;0.38;0.20;;;;;;;;;;4732757;30;20056;-61
2022/07/17 12:33:43;;;;;;;1.85;0.40;;;;;;;;;;4733329;30;20053;-61
2022/07/17 12:36:11;;;;;;;1.65;0.20;;;;;;;;;;4717632;30;20421;-62
2022/07/17 12:38:38;;;;;;;2.10;0.30;;;;;;;;;;4733410;30;20118;-61
2022/07/17 12:41:05;;;;;;;0.93;0.30;;;;;;;;;;4733376;30;20051;-61
2022/07/17 12:43:33;;;;;;;0.95;0.30;;;;;;;;;;4733490;30;20099;-61
2022/07/17 12:46:00;;;;;;;0.80;0.22;;;;;;;;;;4733197;30;20517;-61
2022/07/17 12:48:39;;;;;;;1.95;0.30;;;;;;;;;;4733149;30;20059;-61
2022/07/17 12:51:07;;;;;;;0.50;0.30;;;;;;;;;;4733294;30;20041;-59
2022/07/17 12:53:35;;;;;;;65.93;35.17;;;;;;;;;;4733332;30;20470;-60
2022/07/17 12:56:03;;;;;;;6.13;3.30;;;;;;;;;;4733354;30;20460;-61
2022/07/17 12:58:31;;;;;;;0.70;0.30;;;;;;;;;;4732952;30;20065;-61
2022/07/17 13:00:59;;;;;;;0.55;0.20;;;;;;;;;;4734454;30;20111;-61
2022/07/17 13:03:27;;;;;;;0.77;0.30;;;;;;;;;;4729641;30;20059;-62
2022/07/17 13:06:00;;;;;;;0.60;0.20;;;;;;;;;;4736383;30;20561;-61
2022/07/17 13:08:29;;;;;;;3.15;0.30;;;;;;;;;;4729259;30;20139;-62
2022/07/17 13:10:57;;;;;;;0.30;0.25;;;;;;;;;;4736275;30;20063;-62
2022/07/17 13:13:28;;;;;;;0.22;0.20;;;;;;;;;;4736412;30;20114;-62
2022/07/17 13:15:56;;;;;;;0.70;0.30;;;;;;;;;;4736373;30;20540;-61
2022/07/17 13:18:24;;;;;;;0.50;0.25;;;;;;;;;;4736378;30;20584;-61
2022/07/17 13:20:52;;;;;;;0.40;0.20;;;;;;;;;;4736452;30;20449;-61
2022/07/17 13:23:27;;;;;;;14.68;8.85;;;;;;;;;;4736372;30;20469;-60
2022/07/17 13:25:54;;;;;;;8.18;4.47;;;;;;;;;;4736121;30;20052;-60
2022/07/17 13:28:22;;;;;;;0.82;0.40;;;;;;;;;;4720619;30;20056;-62
2022/07/17 13:30:49;;;;;;;0.17;0.17;;;;;;;;;;4735875;30;20045;-62
2022/07/17 13:33:18;;;;;;;0.77;0.50;;;;;;;;;;4735878;30;20049;-61
2022/07/17 13:35:45;;;;;;;3.13;0.40;;;;;;;;;;4736097;30;20052;-61
2022/07/17 13:38:13;;;;;;;1.88;0.20;;;;;;;;;;4735895;30;20055;-61
2022/07/17 13:40:41;;;;;;;0.45;0.28;;;;;;;;;;4735689;30;20044;-61
2022/07/17 13:43:09;;;;;;;1.20;0.30;;;;;;;;;;4734801;30;20106;-60
2022/07/17 13:45:36;;;;;;;1.42;0.40;;;;;;;;;;4734440;30;20057;-61
2022/07/17 13:48:04;;;;;;;0.20;0.20;;;;;;;;;;4734633;30;20049;-61
2022/07/17 13:50:32;;;;;;;0.30;0.20;;;;;;;;;;4734516;30;20045;-61
2022/07/17 13:53:00;;;;;;;0.75;0.30;;;;;;;;;;4734318;30;20052;-61
2022/07/17 13:55:28;;;;;;;0.20;0.20;;;;;;;;;;4734708;30;20513;-61
2022/07/17 13:58:08;;;;;;;0.20;0.20;;;;;;;;;;4735145;30;20584;-61
2022/07/17 14:00:36;;;;;;;0.40;0.22;;;;;;;;;;4735633;30;20048;-61
2022/07/17 14:03:05;;;;;;;0.60;0.30;;;;;;;;;;4735582;30;20040;-61
2022/07/17 14:05:33;;;;;;;0.85;0.30;;;;;;;;;;4734763;30;20052;-61
2022/07/17 14:08:01;;;;;;;2.35;0.32;;;;;;;;;;4735431;30;20053;-60
2022/07/17 14:10:28;;;;;;;1.15;0.30;;;;;;;;;;4735152;30;20076;-61
2022/07/17 14:12:55;;;;;;;1.33;0.30;;;;;;;;;;4735021;30;20049;-61
2022/07/17 14:15:23;;;;;;;0.70;0.40;;;;;;;;;;4735369;30;20044;-61
2022/07/17 14:17:50;;;;;;;2.58;0.60;;;;;;;;;;4735074;30;20080;-60
2022/07/17 14:20:17;;;;;;;0.50;0.30;;;;;;;;;;4735016;30;20516;-60
2022/07/17 14:22:44;;;;;;;2.47;0.40;;;;;;;;;;4735286;30;20051;-62
2022/07/17 14:25:12;;;;;;;0.88;0.45;;;;;;;;;;4734848;30;20053;-63
2022/07/17 14:27:39;;;;;;;0.50;0.30;;;;;;;;;;4734453;30;20052;-63
2022/07/17 14:30:07;;;;;;;0.80;0.30;;;;;;;;;;4734752;30;20099;-61
2022/07/17 14:32:34;;;;;;;1.60;0.30;;;;;;;;;;4719286;30;20049;-62
2022/07/17 14:35:01;;;;;;;0.22;0.20;;;;;;;;;;4735145;30;20048;-61
2022/07/17 14:37:29;;;;;;;1.63;0.20;;;;;;;;;;4734973;30;20087;-61
2022/07/17 14:39:57;;;;;;;0.38;0.30;;;;;;;;;;4734985;30;20041;-62
2022/07/17 14:42:24;;;;;;;0.30;0.30;;;;;;;;;;4734892;30;20049;-63
2022/07/17 14:44:52;;;;;;;0.80;0.20;;;;;;;;;;4735018;30;20059;-61
2022/07/17 14:47:19;;;;;;;0.82;0.20;;;;;;;;;;4719087;30;20045;-61
2022/07/17 14:49:46;;;;;;;0.50;0.20;;;;;;;;;;4734874;30;20056;-62
2022/07/17 14:52:15;;;;;;;2.38;0.28;;;;;;;;;;4734429;30;20106;-62
2022/07/17 14:54:42;;;;;;;1.88;0.30;;;;;;;;;;4733605;30;20580;-62